Time;durP1;ratioP1;P1;durP2;ratioP2;P2;SDS_P1;SDS_P2;PMS_P1;PMS_P2;Temp;Humidity;BMP_temperature;BMP_pressure;BME280_temperature;BME280_humidity;BME280_pressure;Samples;Min_cycle;Max_cycle;Signal;HPM_P1;HPM_P2
2022/01/03 00:00:49;;;;;;;3.88;1.10;;;11.30;99.90;;;;;;5030602;28;20465;-66
2022/01/03 00:03:16;;;;;;;4.65;1.38;;;11.30;99.90;;;;;;5030414;28;20105;-66
2022/01/03 00:08:09;;;;;;;4.45;1.40;;;11.20;99.90;;;;;;5090262;22;20048;-66
2022/01/03 00:10:35;;;;;;;2.63;1.17;;;11.30;99.90;;;;;;5026568;28;20026;-66
2022/01/03 00:13:02;;;;;;;5.85;1.25;;;11.30;99.90;;;;;;5013312;28;20026;-66
2022/01/03 00:15:28;;;;;;;3.40;1.30;;;11.30;99.90;;;;;;5013456;28;20022;-67
2022/01/03 00:17:54;;;;;;;4.38;1.10;;;11.30;99.90;;;;;;4993568;28;20076;-66
2022/01/03 00:20:22;;;;;;;2.55;1.23;;;11.40;99.90;;;;;;4994087;28;20061;-67
2022/01/03 00:23:00;;;;;;;5.75;1.77;;;11.40;99.90;;;;;;5009616;28;20378;-67
2022/01/03 00:25:26;;;;;;;5.47;1.23;;;11.50;99.90;;;;;;5010765;28;20476;-66
2022/01/03 00:28:02;;;;;;;4.07;1.42;;;11.50;99.90;;;;;;4992458;28;20132;-67
2022/01/03 00:30:33;;;;;;;6.13;1.63;;;11.60;99.90;;;;;;4993129;28;20033;-67
2022/01/03 00:33:01;;;;;;;5.13;1.17;;;11.60;99.90;;;;;;4993706;28;20056;-67
2022/01/03 00:35:28;;;;;;;3.35;1.30;;;11.70;99.90;;;;;;4993520;28;20022;-66
2022/01/03 00:37:57;;;;;;;4.97;1.10;;;11.70;99.90;;;;;;4992623;28;20022;-67
2022/01/03 00:40:24;;;;;;;5.47;1.40;;;11.70;99.90;;;;;;4997780;28;20033;-67
2022/01/03 00:42:50;;;;;;;3.10;1.15;;;11.80;99.90;;;;;;4993566;28;20466;-67
2022/01/03 00:45:16;;;;;;;3.38;1.30;;;11.80;99.90;;;;;;4992969;28;20051;-66
2022/01/03 00:47:41;;;;;;;6.78;1.77;;;11.80;99.90;;;;;;4992498;28;20139;-66
2022/01/03 00:50:11;;;;;;;6.15;1.88;;;11.90;99.90;;;;;;4992999;28;20029;-67
2022/01/03 00:52:37;;;;;;;7.13;2.05;;;11.90;99.90;;;;;;4993139;28;20026;-66
2022/01/03 00:55:04;;;;;;;5.47;1.63;;;11.90;99.90;;;;;;4989414;28;20029;-67
2022/01/03 00:57:49;;;;;;;5.70;1.67;;;11.90;99.90;;;;;;4992571;28;20021;-66
2022/01/03 01:00:15;;;;;;;7.90;1.95;;;11.90;99.90;;;;;;4993163;28;20494;-67
2022/01/03 01:02:51;;;;;;;5.88;2.28;;;11.90;99.90;;;;;;4993126;28;20121;-66
2022/01/03 01:05:20;;;;;;;5.72;1.80;;;11.90;99.90;;;;;;4992938;28;20029;-66
2022/01/03 01:07:47;;;;;;;5.95;1.50;;;11.90;99.90;;;;;;4991685;28;20037;-66
2022/01/03 01:10:13;;;;;;;7.93;2.38;;;11.80;99.90;;;;;;4994886;28;20037;-67
2022/01/03 01:12:41;;;;;;;8.18;2.80;;;11.80;99.90;;;;;;4993166;28;20455;-67
2022/01/03 01:15:07;;;;;;;3.05;1.10;;;11.90;99.90;;;;;;4993048;28;20121;-67
2022/01/03 01:17:34;;;;;;;3.67;1.02;;;11.80;99.90;;;;;;4992262;28;20067;-67
2022/01/03 01:20:00;;;;;;;5.25;1.33;;;11.90;99.90;;;;;;4992623;28;20045;-67
2022/01/03 01:22:26;;;;;;;3.78;1.17;;;11.80;99.90;;;;;;4986070;28;20435;-67
2022/01/03 01:25:22;;;;;;;1.98;0.90;;;11.80;99.90;;;;;;5004803;28;20033;-66
2022/01/03 01:27:50;;;;;;;2.23;0.90;;;11.80;99.90;;;;;;5008773;28;20018;-67
2022/01/03 01:30:20;;;;;;;;;;;11.90;99.90;;;;;;4993237;28;20046;-66
2022/01/03 01:33:16;;;;;;;3.38;1.00;;;11.90;99.90;;;;;;4992975;28;19916;-67
2022/01/03 01:35:46;;;;;;;3.70;1.00;;;11.90;99.90;;;;;;4989480;28;20034;-67
2022/01/03 01:38:21;;;;;;;4.28;1.10;;;11.80;99.90;;;;;;4990143;28;20030;-67
2022/01/03 01:40:50;;;;;;;3.22;0.93;;;11.90;99.90;;;;;;4995304;28;20022;-66
2022/01/03 01:43:39;;;;;;;3.58;1.10;;;11.90;99.90;;;;;;4996525;28;20038;-67
2022/01/03 01:46:17;;;;;;;4.72;1.17;;;11.90;99.90;;;;;;4996078;28;20052;-68
2022/01/03 01:48:46;;;;;;;5.00;1.15;;;11.90;99.90;;;;;;4995851;28;20040;-67
2022/01/03 01:51:13;;;;;;;6.22;1.35;;;11.90;99.90;;;;;;4996166;28;20160;-67
2022/01/03 01:53:42;;;;;;;6.60;1.17;;;11.90;99.90;;;;;;4996322;28;20033;-67
2022/01/03 01:56:18;;;;;;;3.58;1.20;;;11.80;99.90;;;;;;5009053;28;20026;-67
2022/01/03 01:59:11;;;;;;;5.63;0.98;;;11.80;99.90;;;;;;4995573;28;20087;-67
2022/01/03 02:02:05;;;;;;;4.75;1.13;;;11.80;99.90;;;;;;4994695;28;20030;-68
2022/01/03 02:04:46;;;;;;;5.20;1.20;;;11.80;99.90;;;;;;4996236;28;20079;-67
2022/01/03 02:07:37;;;;;;;4.70;1.27;;;11.80;99.90;;;;;;4995209;28;20038;-68
2022/01/03 02:10:06;;;;;;;3.30;1.00;;;11.80;99.90;;;;;;4988635;28;20104;-67
2022/01/03 02:12:46;;;;;;;5.95;0.93;;;11.70;99.90;;;;;;4996161;28;20382;-67
2022/01/03 02:15:14;;;;;;;5.05;0.90;;;11.70;99.90;;;;;;4996174;28;20026;-67
2022/01/03 02:17:44;;;;;;;4.05;0.88;;;11.70;99.90;;;;;;4995189;28;20037;-67
2022/01/03 02:20:14;;;;;;;5.95;1.10;;;11.70;99.90;;;;;;4996298;28;20030;-67
2022/01/03 02:22:41;;;;;;;4.97;1.33;;;11.70;99.90;;;;;;4993284;28;20030;-67
2022/01/03 02:25:09;;;;;;;3.50;1.13;;;11.70;99.90;;;;;;5000353;28;20075;-67
2022/01/03 02:27:36;;;;;;;2.22;0.90;;;11.70;99.90;;;;;;4996486;28;20026;-67
2022/01/03 02:30:08;;;;;;;3.42;1.10;;;11.70;99.90;;;;;;5003477;28;20026;-67
2022/01/03 02:32:34;;;;;;;5.40;1.33;;;11.70;99.90;;;;;;4995623;28;20360;-67
2022/01/03 02:35:00;;;;;;;7.35;1.17;;;11.70;99.90;;;;;;4995629;28;20029;-66
2022/01/03 02:37:26;;;;;;;4.95;1.33;;;11.70;99.90;;;;;;4995027;28;20022;-67
2022/01/03 02:39:52;;;;;;;5.80;1.33;;;11.70;99.90;;;;;;4999883;28;20034;-66
2022/01/03 02:42:23;;;;;;;3.75;0.80;;;11.70;99.90;;;;;;4995797;28;20463;-67
2022/01/03 02:45:11;;;;;;;4.97;0.90;;;11.70;99.90;;;;;;4995494;28;20487;-68
2022/01/03 02:47:38;;;;;;;4.85;1.08;;;11.70;99.90;;;;;;4994492;28;20084;-68
2022/01/03 02:50:06;;;;;;;4.60;0.93;;;11.70;99.90;;;;;;4995205;28;20482;-66
2022/01/03 02:52:35;;;;;;;5.20;1.00;;;11.70;99.90;;;;;;4994955;28;20092;-67
2022/01/03 02:55:01;;;;;;;2.45;1.10;;;11.70;99.90;;;;;;4995544;28;20441;-68
2022/01/03 02:57:37;;;;;;;2.10;0.40;;;11.70;99.90;;;;;;4994132;28;20084;-67
2022/01/03 03:00:05;;;;;;;0.73;0.30;;;11.70;99.90;;;;;;4994795;28;20026;-66
2022/01/03 03:02:31;;;;;;;2.10;0.43;;;11.50;99.90;;;;;;4995062;28;20482;-67
2022/01/03 03:04:59;;;;;;;1.05;0.40;;;11.30;99.90;;;;;;4995232;28;20083;-67
2022/01/03 03:07:27;;;;;;;2.05;0.50;;;11.10;99.90;;;;;;4994194;28;20041;-67
2022/01/03 03:09:54;;;;;;;4.30;0.40;;;10.80;99.90;;;;;;5003091;28;20034;-66
2022/01/03 03:12:20;;;;;;;0.82;0.43;;;10.70;99.90;;;;;;4994727;28;20030;-67
2022/01/03 03:14:46;;;;;;;2.60;0.50;;;10.50;99.90;;;;;;4995217;28;20116;-67
2022/01/03 03:17:12;;;;;;;1.65;0.43;;;10.40;99.90;;;;;;4994584;28;20076;-66
2022/01/03 03:19:55;;;;;;;1.95;0.40;;;10.30;99.90;;;;;;4994181;28;20144;-67
2022/01/03 03:22:24;;;;;;;1.30;0.40;;;10.10;99.90;;;;;;4993932;28;20045;-67
2022/01/03 03:24:50;;;;;;;0.82;0.40;;;10.00;99.90;;;;;;5011117;28;20227;-68
2022/01/03 03:27:16;;;;;;;1.92;0.47;;;9.90;99.90;;;;;;5010332;28;20029;-67
2022/01/03 03:29:50;;;;;;;0.82;0.40;;;9.90;99.90;;;;;;4994553;28;20479;-67
2022/01/03 03:32:17;;;;;;;1.77;0.45;;;9.80;99.90;;;;;;4994662;28;20030;-66
2022/01/03 03:34:44;;;;;;;1.40;0.60;;;9.80;99.90;;;;;;4994949;28;20435;-67
2022/01/03 03:37:15;;;;;;;1.75;0.30;;;9.80;99.90;;;;;;4993711;28;20045;-67
2022/01/03 03:39:41;;;;;;;1.42;0.50;;;9.80;99.90;;;;;;4995769;28;20032;-67
2022/01/03 03:42:08;;;;;;;1.83;0.43;;;9.80;99.90;;;;;;5010807;28;20034;-68
2022/01/03 03:44:35;;;;;;;1.52;0.63;;;9.80;99.90;;;;;;4994423;28;20036;-67
2022/01/03 03:47:02;;;;;;;2.42;0.60;;;9.70;99.90;;;;;;4993638;28;20490;-67
2022/01/03 03:49:28;;;;;;;0.95;0.47;;;9.70;99.90;;;;;;4994059;28;20435;-66
2022/01/03 03:51:53;;;;;;;1.10;0.60;;;9.70;99.90;;;;;;4994106;28;20121;-67
2022/01/03 03:54:19;;;;;;;1.67;0.45;;;9.70;99.90;;;;;;4994322;28;20172;-68
2022/01/03 03:56:45;;;;;;;4.22;0.60;;;9.60;99.90;;;;;;5001213;28;20022;-67
2022/01/03 03:59:11;;;;;;;1.73;0.40;;;9.60;99.90;;;;;;4992811;28;20041;-66
2022/01/03 04:01:37;;;;;;;3.92;0.70;;;9.50;99.90;;;;;;4994131;28;20038;-66
2022/01/03 04:04:03;;;;;;;3.75;0.63;;;9.40;99.90;;;;;;4994042;28;20101;-67
2022/01/03 04:06:28;;;;;;;3.28;0.82;;;9.40;99.90;;;;;;4993901;28;20034;-66
2022/01/03 04:08:54;;;;;;;6.40;1.02;;;9.40;99.90;;;;;;5000580;28;20534;-67
2022/01/03 04:11:20;;;;;;;3.22;1.05;;;9.50;99.90;;;;;;4993864;28;20116;-67
2022/01/03 04:13:46;;;;;;;2.67;0.90;;;9.50;99.90;;;;;;4994161;28;20026;-67
2022/01/03 04:16:12;;;;;;;10.15;1.00;;;9.60;99.90;;;;;;5011363;28;20018;-66
2022/01/03 04:18:38;;;;;;;3.00;0.70;;;9.70;99.90;;;;;;4990466;28;20018;-67
2022/01/03 04:21:04;;;;;;;2.83;0.50;;;9.70;99.90;;;;;;4993072;28;20395;-67
2022/01/03 04:23:29;;;;;;;2.13;0.77;;;9.80;99.90;;;;;;4993588;28;20076;-67
2022/01/03 04:25:55;;;;;;;6.15;0.85;;;9.70;99.90;;;;;;4995202;28;20111;-67
2022/01/03 04:28:21;;;;;;;4.28;0.90;;;9.60;99.90;;;;;;4992769;28;20034;-66
2022/01/03 04:30:47;;;;;;;3.03;0.70;;;9.60;99.90;;;;;;4993868;28;20026;-67
2022/01/03 04:33:13;;;;;;;4.25;0.82;;;9.60;99.90;;;;;;4993672;28;20026;-67
2022/01/03 04:35:39;;;;;;;3.20;0.90;;;9.60;99.90;;;;;;4993698;28;20450;-68
2022/01/03 04:38:05;;;;;;;4.15;0.80;;;9.60;99.90;;;;;;4993465;28;20026;-67
2022/01/03 04:40:31;;;;;;;6.10;1.10;;;9.70;99.90;;;;;;4996819;28;20537;-66
2022/01/03 04:42:57;;;;;;;3.45;0.93;;;9.70;99.90;;;;;;5011355;28;20025;-67
2022/01/03 04:45:23;;;;;;;3.70;0.98;;;9.70;99.90;;;;;;4993218;28;20450;-66
2022/01/03 04:47:48;;;;;;;4.50;0.80;;;9.70;99.90;;;;;;4992592;28;20022;-67
2022/01/03 04:50:15;;;;;;;3.88;0.85;;;9.60;99.90;;;;;;5010806;28;20026;-66
2022/01/03 04:52:41;;;;;;;7.20;0.90;;;9.50;99.90;;;;;;4993194;28;20124;-67
2022/01/03 04:55:08;;;;;;;1.58;0.70;;;9.40;99.90;;;;;;4992755;28;20018;-67
2022/01/03 04:57:34;;;;;;;3.03;0.90;;;9.40;99.90;;;;;;4992469;28;20022;-67
2022/01/03 05:00:00;;;;;;;2.97;0.80;;;9.30;99.90;;;;;;4993034;28;20040;-67
2022/01/03 05:02:26;;;;;;;6.72;0.98;;;9.20;99.90;;;;;;4993123;28;20036;-67
2022/01/03 05:04:51;;;;;;;3.78;0.73;;;9.20;99.90;;;;;;4992990;28;20133;-67
2022/01/03 05:07:17;;;;;;;4.28;1.08;;;9.20;99.90;;;;;;4992132;28;20065;-68
2022/01/03 05:09:43;;;;;;;11.98;1.50;;;9.20;99.90;;;;;;4999687;28;20060;-66
2022/01/03 05:12:08;;;;;;;3.95;1.08;;;9.20;99.90;;;;;;4993241;28;20022;-66
2022/01/03 05:14:34;;;;;;;5.20;0.93;;;9.20;99.90;;;;;;5009227;28;20049;-67
2022/01/03 05:17:00;;;;;;;4.80;1.02;;;9.20;99.90;;;;;;4992650;28;20029;-67
2022/01/03 05:19:25;;;;;;;3.70;1.02;;;9.20;99.90;;;;;;4990700;28;20022;-67
2022/01/03 05:21:52;;;;;;;6.13;1.23;;;9.20;99.90;;;;;;4992795;28;20123;-66
2022/01/03 05:24:18;;;;;;;4.63;1.17;;;9.20;99.90;;;;;;4992311;28;20025;-66
2022/01/03 05:26:44;;;;;;;7.05;1.50;;;9.20;99.90;;;;;;4992909;28;20119;-66
2022/01/03 05:29:10;;;;;;;11.18;1.65;;;9.20;99.90;;;;;;4991875;28;20156;-66
2022/01/03 05:31:36;;;;;;;6.68;1.00;;;9.20;99.90;;;;;;4992847;28;20021;-67
2022/01/03 05:34:02;;;;;;;8.93;1.17;;;9.20;99.90;;;;;;4992406;28;20405;-66
2022/01/03 05:36:28;;;;;;;5.15;1.30;;;9.20;99.90;;;;;;4992595;28;20026;-66
2022/01/03 05:38:54;;;;;;;5.20;1.05;;;9.20;99.90;;;;;;4991884;28;20061;-66
2022/01/03 05:41:20;;;;;;;4.90;1.25;;;9.30;99.90;;;;;;4992805;28;20026;-66
2022/01/03 05:43:45;;;;;;;5.32;1.90;;;9.30;99.90;;;;;;4992651;28;20029;-67
2022/01/03 05:46:13;;;;;;;5.88;1.25;;;9.30;99.90;;;;;;4992706;28;20058;-66
2022/01/03 05:48:38;;;;;;;5.43;1.10;;;9.40;99.90;;;;;;4990913;28;20076;-67
2022/01/03 05:51:04;;;;;;;5.45;1.00;;;9.40;99.90;;;;;;5001847;28;20402;-67
2022/01/03 05:53:33;;;;;;;7.70;1.35;;;9.40;99.90;;;;;;4996027;28;20080;-67
2022/01/03 05:56:00;;;;;;;5.68;1.00;;;9.50;99.90;;;;;;4992804;28;20108;-66
2022/01/03 05:58:26;;;;;;;7.05;1.15;;;9.50;99.90;;;;;;4990035;28;20088;-66
2022/01/03 06:00:51;;;;;;;3.97;1.15;;;9.50;99.90;;;;;;4991596;28;20097;-68
2022/01/03 06:03:20;;;;;;;2.10;0.60;;;9.60;99.90;;;;;;4991658;28;20079;-67
2022/01/03 06:08:20;;;;;;;3.42;1.10;;;9.60;99.90;;;;;;5009243;28;20183;-67
2022/01/03 06:10:45;;;;;;;5.82;1.30;;;9.60;99.90;;;;;;4993244;28;20129;-66
2022/01/03 06:13:15;;;;;;;4.10;1.02;;;9.70;99.90;;;;;;4992795;28;20137;-67
2022/01/03 06:15:41;;;;;;;4.05;0.93;;;9.70;99.90;;;;;;5009848;28;20030;-67
2022/01/03 06:18:11;;;;;;;3.85;1.00;;;9.70;99.90;;;;;;4990989;28;20073;-67
2022/01/03 06:20:45;;;;;;;5.40;1.08;;;9.80;99.90;;;;;;4991709;28;20034;-66
2022/01/03 06:23:12;;;;;;;6.90;1.50;;;9.80;99.90;;;;;;4996909;28;20497;-66
2022/01/03 06:25:39;;;;;;;5.93;1.08;;;9.70;99.90;;;;;;4994671;28;20035;-67
2022/01/03 06:28:07;;;;;;;5.63;1.00;;;9.70;99.90;;;;;;4995035;28;20112;-67
2022/01/03 06:30:41;;;;;;;9.30;1.30;;;9.80;99.90;;;;;;4995772;28;20084;-67
2022/01/03 06:33:08;;;;;;;7.68;1.25;;;9.80;99.90;;;;;;4995600;28;20029;-66
2022/01/03 06:35:34;;;;;;;4.45;1.23;;;9.70;99.90;;;;;;4995844;28;20026;-67
2022/01/03 06:38:02;;;;;;;6.88;1.48;;;9.70;99.90;;;;;;4994707;28;20108;-66
2022/01/03 06:40:28;;;;;;;8.00;1.40;;;9.80;99.90;;;;;;4996129;28;20026;-66
2022/01/03 06:42:54;;;;;;;6.60;1.20;;;9.80;99.90;;;;;;4995406;28;20041;-68
2022/01/03 06:45:20;;;;;;;6.25;1.25;;;9.70;99.90;;;;;;5002237;28;20367;-67
2022/01/03 06:47:47;;;;;;;4.60;1.23;;;9.80;99.90;;;;;;4994495;28;20088;-66
2022/01/03 06:50:12;;;;;;;4.22;1.00;;;9.80;99.90;;;;;;4997513;28;20030;-67
2022/01/03 06:52:38;;;;;;;6.32;1.25;;;9.80;99.90;;;;;;5012086;28;20048;-66
2022/01/03 06:55:05;;;;;;;8.32;1.20;;;9.80;99.90;;;;;;4995401;28;20030;-65
2022/01/03 06:57:31;;;;;;;5.47;1.10;;;9.80;99.90;;;;;;4994399;28;20034;-66
2022/01/03 06:59:57;;;;;;;3.15;1.20;;;9.70;99.90;;;;;;4995396;28;20093;-66
2022/01/03 07:02:23;;;;;;;10.30;1.75;;;9.70;99.90;;;;;;4995334;28;20098;-66
2022/01/03 07:04:49;;;;;;;3.17;1.10;;;9.70;99.90;;;;;;4994916;28;20057;-66
2022/01/03 07:07:15;;;;;;;4.60;1.50;;;9.70;99.90;;;;;;4994573;28;20080;-66
2022/01/03 07:09:40;;;;;;;5.65;1.35;;;9.70;99.90;;;;;;4995411;28;20124;-65
2022/01/03 07:12:07;;;;;;;4.13;1.02;;;9.70;99.90;;;;;;4994821;28;20021;-66
2022/01/03 07:19:52;;;;;;;7.35;1.35;;;9.70;99.90;;;;;;5035985;28;20177;-65
2022/01/03 07:22:18;;;;;;;7.57;1.30;;;9.60;99.90;;;;;;5013830;28;20465;-66
2022/01/03 07:24:44;;;;;;;6.80;1.20;;;9.60;99.90;;;;;;4994256;28;20173;-66
2022/01/03 07:27:16;;;;;;;4.07;1.35;;;9.60;99.90;;;;;;4993349;28;20072;-65
2022/01/03 07:29:43;;;;;;;6.38;1.40;;;9.60;99.90;;;;;;4993557;28;20429;-65
2022/01/03 07:32:09;;;;;;;5.32;1.48;;;9.60;99.90;;;;;;5001544;28;20038;-64
2022/01/03 07:34:34;;;;;;;4.88;1.33;;;9.60;99.90;;;;;;4985869;28;20026;-65
2022/01/03 07:37:00;;;;;;;4.20;0.90;;;9.60;99.90;;;;;;4996182;28;20539;-68
2022/01/03 07:39:28;;;;;;;7.65;1.23;;;9.60;99.90;;;;;;4986891;28;20567;-66
2022/01/03 07:41:54;;;;;;;2.88;0.77;;;9.60;99.90;;;;;;4995487;28;20057;-65
2022/01/03 07:44:20;;;;;;;6.30;1.33;;;9.60;99.90;;;;;;4991494;28;20084;-64
2022/01/03 07:46:45;;;;;;;6.35;1.40;;;9.60;99.90;;;;;;4994772;28;20030;-66
2022/01/03 07:49:11;;;;;;;6.43;1.42;;;9.60;99.90;;;;;;4979890;28;20030;-65
2022/01/03 07:51:37;;;;;;;4.90;1.15;;;9.60;99.90;;;;;;5008790;28;20048;-66
2022/01/03 07:54:03;;;;;;;6.32;1.20;;;9.50;99.90;;;;;;5011890;28;20073;-65
2022/01/03 07:56:28;;;;;;;7.78;1.50;;;9.50;99.90;;;;;;5000796;28;20037;-65
2022/01/03 07:58:54;;;;;;;6.57;1.08;;;9.60;99.90;;;;;;4994891;28;20033;-66
2022/01/03 08:01:20;;;;;;;3.83;1.23;;;9.50;99.90;;;;;;4991920;28;20038;-67
2022/01/03 08:03:45;;;;;;;9.57;1.27;;;9.60;99.90;;;;;;4993494;28;20089;-65
2022/01/03 08:06:11;;;;;;;6.15;1.35;;;9.50;99.90;;;;;;4991677;28;20042;-66
2022/01/03 08:08:38;;;;;;;6.00;1.23;;;9.50;99.90;;;;;;4974825;28;20027;-66
2022/01/03 08:11:04;;;;;;;4.05;1.08;;;9.50;99.90;;;;;;4984525;28;20057;-65
2022/01/03 08:13:30;;;;;;;8.07;1.58;;;9.50;99.90;;;;;;4995153;28;20506;-66
2022/01/03 08:15:56;;;;;;;6.55;1.15;;;9.50;99.90;;;;;;5008544;28;20036;-65
2022/01/03 08:18:21;;;;;;;4.97;1.20;;;9.50;99.90;;;;;;5002928;28;20413;-65
2022/01/03 08:20:47;;;;;;;4.43;1.27;;;9.50;99.90;;;;;;5007412;28;20066;-66
2022/01/03 08:23:12;;;;;;;5.25;1.30;;;9.50;99.90;;;;;;4994808;28;20056;-65
2022/01/03 08:25:38;;;;;;;11.75;2.40;;;9.50;99.90;;;;;;4994976;28;20505;-65
2022/01/03 08:28:09;;;;;;;6.75;1.60;;;9.50;99.90;;;;;;4994884;28;20030;-65
2022/01/03 08:30:35;;;;;;;6.88;1.40;;;9.50;99.90;;;;;;4994790;28;20478;-65
2022/01/03 08:33:02;;;;;;;6.70;1.20;;;9.50;99.90;;;;;;5008064;28;20041;-66
2022/01/03 08:35:29;;;;;;;5.18;1.20;;;9.50;99.90;;;;;;4994329;28;20386;-65
2022/01/03 08:37:55;;;;;;;4.15;1.17;;;9.50;99.90;;;;;;4993968;28;20060;-67
2022/01/03 08:40:21;;;;;;;10.35;1.35;;;9.50;99.90;;;;;;4994671;28;20026;-67
2022/01/03 08:42:46;;;;;;;7.53;1.58;;;9.50;99.90;;;;;;4992561;28;20505;-66
2022/01/03 08:45:13;;;;;;;7.10;1.38;;;9.40;99.90;;;;;;4994467;28;20026;-65
2022/01/03 08:47:38;;;;;;;8.88;1.33;;;9.40;99.90;;;;;;4998018;28;20029;-65
2022/01/03 08:50:06;;;;;;;6.43;2.15;;;9.40;99.90;;;;;;4986429;28;20026;-65
2022/01/03 08:52:32;;;;;;;6.88;1.35;;;9.40;99.90;;;;;;4997476;28;20018;-66
2022/01/03 08:54:58;;;;;;;2.97;1.17;;;9.40;99.90;;;;;;4986460;28;20014;-66
2022/01/03 08:57:24;;;;;;;4.25;1.05;;;9.30;99.90;;;;;;4993879;28;20022;-66
2022/01/03 08:59:50;;;;;;;4.32;1.05;;;9.20;99.90;;;;;;4990840;28;20052;-65
2022/01/03 09:02:16;;;;;;;2.05;0.65;;;9.10;99.90;;;;;;4991400;28;20030;-65
2022/01/03 09:04:43;;;;;;;4.70;0.70;;;8.90;99.90;;;;;;4993809;28;20490;-66
2022/01/03 09:07:09;;;;;;;0.95;0.60;;;8.80;99.90;;;;;;4993756;28;20463;-69
2022/01/03 09:09:35;;;;;;;2.85;0.80;;;8.70;99.90;;;;;;5006413;28;20030;-66
2022/01/03 09:12:03;;;;;;;2.10;0.70;;;8.60;99.90;;;;;;4994395;28;20028;-65
2022/01/03 09:14:29;;;;;;;3.55;0.80;;;8.50;99.90;;;;;;4994014;28;20108;-65
2022/01/03 09:16:55;;;;;;;3.05;0.70;;;8.50;99.90;;;;;;4993531;28;20113;-66
2022/01/03 09:19:21;;;;;;;4.00;0.93;;;8.50;99.90;;;;;;4995035;28;20041;-66
2022/01/03 09:21:46;;;;;;;4.55;1.23;;;8.50;99.90;;;;;;4994309;28;20021;-65
2022/01/03 09:24:53;;;;;;;1.17;0.70;;;8.50;99.90;;;;;;5007673;28;20030;-66
2022/01/03 09:30:01;;;;;;;8.20;1.73;;;8.60;99.90;;;;;;4992319;28;20109;-66
2022/01/03 09:32:27;;;;;;;6.43;1.30;;;8.70;99.90;;;;;;5005765;28;20027;-66
2022/01/03 09:34:52;;;;;;;5.65;1.65;;;8.70;99.90;;;;;;5004955;28;20034;-66
2022/01/03 09:37:20;;;;;;;4.30;1.20;;;8.80;99.90;;;;;;4993355;28;20022;-66
2022/01/03 09:39:49;;;;;;;7.25;1.30;;;8.80;99.90;;;;;;4993949;28;20446;-66
2022/01/03 09:42:21;;;;;;;8.32;1.20;;;8.80;99.90;;;;;;4992300;28;20034;-66
2022/01/03 09:44:49;;;;;;;9.10;1.55;;;8.90;99.90;;;;;;4994299;28;20036;-66
2022/01/03 09:47:17;;;;;;;8.38;1.65;;;8.90;99.90;;;;;;4987122;28;20095;-66
2022/01/03 09:49:43;;;;;;;12.02;1.23;;;9.00;99.90;;;;;;4992942;28;20022;-66
2022/01/03 09:52:09;;;;;;;5.63;1.30;;;9.10;99.90;;;;;;4995053;28;20026;-68
2022/01/03 09:54:37;;;;;;;8.43;1.20;;;9.10;99.90;;;;;;4993516;28;20109;-66
2022/01/03 09:57:04;;;;;;;2.67;1.08;;;9.10;99.90;;;;;;4994013;28;20025;-66
2022/01/03 09:59:32;;;;;;;7.22;1.23;;;9.10;99.90;;;;;;4994231;28;20084;-65
2022/01/03 10:01:58;;;;;;;9.60;1.58;;;9.20;99.90;;;;;;4978007;28;20394;-66
2022/01/03 10:04:24;;;;;;;6.38;1.23;;;9.10;99.90;;;;;;4993473;28;20564;-64
2022/01/03 10:06:50;;;;;;;8.25;1.50;;;9.20;99.90;;;;;;4997678;28;20033;-66
2022/01/03 10:09:19;;;;;;;8.90;1.83;;;9.20;99.90;;;;;;4997838;28;20044;-65
2022/01/03 10:11:45;;;;;;;14.48;1.65;;;9.20;99.90;;;;;;4998073;28;20113;-65
2022/01/03 10:14:12;;;;;;;7.20;1.50;;;9.20;99.90;;;;;;4997739;28;20151;-64
2022/01/03 10:16:39;;;;;;;7.43;1.40;;;9.30;99.90;;;;;;4997364;28;20053;-65
2022/01/03 10:19:04;;;;;;;5.25;1.27;;;9.30;99.90;;;;;;4996593;28;20042;-65
2022/01/03 10:21:40;;;;;;;11.95;2.05;;;9.30;99.90;;;;;;4997499;28;20033;-65
2022/01/03 10:24:06;;;;;;;5.55;1.30;;;9.40;99.90;;;;;;4977731;28;20040;-66
2022/01/03 10:26:33;;;;;;;11.50;1.33;;;9.40;99.90;;;;;;4977848;28;20032;-64
2022/01/03 10:29:14;;;;;;;8.10;1.65;;;9.40;99.90;;;;;;4995781;28;20518;-62
2022/01/03 10:31:42;;;;;;;6.40;1.20;;;9.40;99.90;;;;;;4994782;28;20076;-65
2022/01/03 10:34:10;;;;;;;7.85;1.27;;;9.50;99.90;;;;;;4991491;28;20022;-64
2022/01/03 10:36:37;;;;;;;12.02;1.33;;;9.50;99.90;;;;;;4995089;28;20026;-64
2022/01/03 10:39:22;;;;;;;5.45;1.02;;;9.50;99.90;;;;;;4996275;28;20141;-66
2022/01/03 10:42:10;;;;;;;7.05;1.55;;;9.60;99.90;;;;;;4996752;28;20529;-68
2022/01/03 10:44:37;;;;;;;5.50;1.40;;;9.60;99.90;;;;;;4993745;28;20100;-66
2022/01/03 10:47:05;;;;;;;5.78;1.20;;;9.60;99.90;;;;;;5018467;28;20401;-64
2022/01/03 10:49:32;;;;;;;8.27;1.50;;;9.60;99.90;;;;;;4999831;28;20105;-66
2022/01/03 10:52:14;;;;;;;7.05;1.42;;;9.60;99.90;;;;;;5001319;28;20056;-65
2022/01/03 10:54:40;;;;;;;6.93;1.63;;;9.60;99.90;;;;;;4996459;28;20109;-66
2022/01/03 10:57:06;;;;;;;7.35;1.80;;;9.60;99.90;;;;;;4995843;28;20030;-66
2022/01/03 10:59:34;;;;;;;15.15;1.95;;;9.70;99.90;;;;;;4998502;28;20032;-65
2022/01/03 11:02:01;;;;;;;3.13;1.20;;;9.70;99.90;;;;;;4996341;28;20063;-66
2022/01/03 11:04:31;;;;;;;7.82;1.52;;;9.70;99.90;;;;;;4996178;28;20112;-66
2022/01/03 11:13:15;;;;;;;5.07;1.23;;;9.70;99.90;;;;;;5011667;28;20052;-65
2022/01/03 11:16:02;;;;;;;8.48;1.80;;;9.70;99.90;;;;;;4994513;28;20474;-66
2022/01/03 11:18:33;;;;;;;6.40;1.30;;;9.70;99.90;;;;;;5002085;28;20030;-64
2022/01/03 11:21:17;;;;;;;8.25;1.30;;;9.80;99.90;;;;;;4995851;28;20033;-66
2022/01/03 11:23:47;;;;;;;8.30;1.33;;;9.80;99.90;;;;;;4993207;28;20037;-64
2022/01/03 11:26:18;;;;;;;6.32;1.52;;;9.80;99.90;;;;;;4995018;28;20386;-64
2022/01/03 11:28:44;;;;;;;8.80;1.58;;;9.80;99.90;;;;;;4994502;28;20217;-67
2022/01/03 11:31:11;;;;;;;11.38;1.77;;;9.90;99.90;;;;;;4994189;28;20026;-68
2022/01/03 11:33:38;;;;;;;7.75;1.42;;;9.90;99.90;;;;;;5005164;28;20018;-64
2022/01/03 11:36:05;;;;;;;7.63;1.48;;;9.90;99.90;;;;;;4990339;28;20026;-68
2022/01/03 11:38:34;;;;;;;6.07;1.25;;;9.90;99.90;;;;;;4992294;28;20029;-66
2022/01/03 11:41:03;;;;;;;5.53;1.40;;;9.90;99.90;;;;;;4992942;28;20108;-66
2022/01/03 11:43:29;;;;;;;7.15;1.48;;;10.00;99.90;;;;;;5006823;28;20063;-66
2022/01/03 11:45:56;;;;;;;4.63;1.45;;;10.00;99.90;;;;;;4992633;28;20030;-67
2022/01/03 11:48:23;;;;;;;7.43;1.30;;;10.00;99.90;;;;;;4991696;28;20030;-67
2022/01/03 11:50:58;;;;;;;13.23;2.55;;;10.00;99.90;;;;;;4992652;28;20065;-67
2022/01/03 11:53:25;;;;;;;5.70;1.10;;;10.00;99.90;;;;;;5004261;28;20069;-66
2022/01/03 11:55:59;;;;;;;4.57;1.20;;;10.10;99.90;;;;;;4993342;28;20053;-67
2022/01/03 11:58:48;;;;;;;6.20;1.10;;;10.10;99.90;;;;;;4992119;28;20030;-67
2022/01/03 12:04:14;;;;;;;7.45;1.38;;;10.20;99.90;;;;;;5002606;28;20036;-67
2022/01/03 12:06:41;;;;;;;8.82;1.52;;;10.20;99.90;;;;;;4991885;28;20061;-67
2022/01/03 12:09:14;;;;;;;4.75;1.15;;;10.20;99.90;;;;;;4993306;28;20112;-67
2022/01/03 12:11:53;;;;;;;4.80;1.00;;;10.20;99.90;;;;;;4992424;28;20041;-71
2022/01/03 12:14:20;;;;;;;5.00;1.20;;;10.20;99.90;;;;;;4991979;28;20405;-66
2022/01/03 12:16:52;;;;;;;6.35;1.40;;;10.30;99.90;;;;;;4992346;28;20034;-67
2022/01/03 12:19:30;;;;;;;11.65;2.83;;;10.30;99.90;;;;;;4997025;28;20030;-67
2022/01/03 12:22:00;;;;;;;6.70;1.83;;;10.30;99.90;;;;;;4992690;28;20402;-67
2022/01/03 12:24:28;;;;;;;6.35;2.00;;;10.30;99.90;;;;;;4992652;28;20084;-66
2022/01/03 12:27:12;;;;;;;7.45;1.70;;;10.30;99.90;;;;;;4988164;28;20555;-67
2022/01/03 12:29:56;;;;;;;7.38;1.42;;;10.30;99.90;;;;;;4974906;28;20074;-67
2022/01/03 12:32:37;;;;;;;6.55;1.52;;;10.40;99.90;;;;;;4991806;28;20119;-67
2022/01/03 12:35:16;;;;;;;7.30;1.35;;;10.40;99.90;;;;;;4991888;28;20028;-67
2022/01/03 12:37:54;;;;;;;5.78;1.45;;;10.40;99.90;;;;;;4991065;28;20029;-67
2022/01/03 12:40:27;;;;;;;5.97;1.40;;;10.40;99.90;;;;;;4991239;28;20517;-66
2022/01/03 12:42:56;;;;;;;5.53;1.35;;;10.40;99.90;;;;;;5009585;28;20045;-67
2022/01/03 12:45:33;;;;;;;6.07;1.40;;;10.40;99.90;;;;;;4989410;28;20121;-66
2022/01/03 12:48:11;;;;;;;6.13;1.23;;;10.40;99.90;;;;;;4990958;28;20053;-68
2022/01/03 12:50:52;;;;;;;4.53;0.98;;;10.50;99.90;;;;;;4998747;28;20078;-66
2022/01/03 12:53:23;;;;;;;4.00;1.20;;;10.50;99.90;;;;;;4991344;28;20347;-67
2022/01/03 12:56:10;;;;;;;6.88;1.35;;;10.50;99.90;;;;;;4991493;28;20096;-67
2022/01/03 12:58:38;;;;;;;9.75;1.23;;;10.50;99.90;;;;;;4990874;28;20569;-66
2022/01/03 13:01:14;;;;;;;5.88;1.23;;;10.50;99.90;;;;;;4991334;28;20037;-66
2022/01/03 13:03:39;;;;;;;4.57;1.00;;;10.50;99.90;;;;;;4991444;28;20037;-67
2022/01/03 13:06:10;;;;;;;3.92;1.02;;;10.50;99.90;;;;;;4987701;28;20038;-66
2022/01/03 13:08:48;;;;;;;4.20;1.27;;;10.50;99.90;;;;;;4979292;28;20828;-67
2022/01/03 13:11:43;;;;;;;4.78;1.15;;;10.50;99.90;;;;;;4991475;28;20022;-67
2022/01/03 13:14:22;;;;;;;4.18;1.20;;;10.50;99.90;;;;;;4990907;28;20513;-67
2022/01/03 13:16:51;;;;;;;4.90;1.85;;;10.60;99.90;;;;;;4991096;28;20030;-67
2022/01/03 13:19:22;;;;;;;5.72;0.90;;;10.60;99.90;;;;;;4993443;28;20034;-67
2022/01/03 13:21:55;;;;;;;6.82;1.35;;;10.60;99.90;;;;;;4991877;28;20100;-67
2022/01/03 13:24:24;;;;;;;8.43;2.10;;;10.60;99.90;;;;;;5002141;28;20030;-66